Time;durP1;ratioP1;P1;durP2;ratioP2;P2;SDS_P1;SDS_P2;PMS_P1;PMS_P2;Temp;Humidity;BMP_temperature;BMP_pressure;BME280_temperature;BME280_humidity;BME280_pressure;Samples;Min_cycle;Max_cycle;Signal;HPM_P1;HPM_P2
2023/05/18 00:01:31;;;;;;;11.27;3.40;;;;;;;;;;5071290;28;20037;-60
2023/05/18 00:03:56;;;;;;;7.85;3.05;;;;;;;;;;5072501;28;20035;-60
2023/05/18 00:06:24;;;;;;;8.25;2.95;;;;;;;;;;5066401;28;20033;-60
2023/05/18 00:08:50;;;;;;;10.10;3.17;;;;;;;;;;5071545;28;20426;-60
2023/05/18 00:11:16;;;;;;;8.90;2.45;;;;;;;;;;5070940;28;20033;-60
2023/05/18 00:13:41;;;;;;;8.25;2.95;;;;;;;;;;5072061;28;20044;-60
2023/05/18 00:16:07;;;;;;;9.95;3.00;;;;;;;;;;5071970;28;20032;-60
2023/05/18 00:18:32;;;;;;;13.63;3.10;;;;;;;;;;5069662;28;20052;-60
2023/05/18 00:20:58;;;;;;;17.15;3.35;;;;;;;;;;5058639;28;20044;-60
2023/05/18 00:23:31;;;;;;;12.20;3.25;;;;;;;;;;5052509;28;20033;-60
2023/05/18 00:26:01;;;;;;;9.52;2.88;;;;;;;;;;5065583;28;20040;-60
2023/05/18 00:28:27;;;;;;;8.93;3.00;;;;;;;;;;5070554;28;20056;-60
2023/05/18 00:30:53;;;;;;;7.72;3.45;;;;;;;;;;5071371;28;20472;-60
2023/05/18 00:33:19;;;;;;;8.02;3.13;;;;;;;;;;5068975;28;20031;-60
2023/05/18 00:35:44;;;;;;;8.82;2.88;;;;;;;;;;5058884;28;20122;-60
2023/05/18 00:38:11;;;;;;;13.48;3.05;;;;;;;;;;5054217;28;20020;-60
2023/05/18 00:40:37;;;;;;;8.93;2.90;;;;;;;;;;5071250;28;20174;-60
2023/05/18 00:43:03;;;;;;;9.57;3.47;;;;;;;;;;5070085;28;20040;-60
2023/05/18 00:45:28;;;;;;;10.35;3.40;;;;;;;;;;5057791;28;20029;-60
2023/05/18 00:47:54;;;;;;;12.38;3.45;;;;;;;;;;5052545;28;20115;-61
2023/05/18 00:50:19;;;;;;;9.68;3.50;;;;;;;;;;5067746;28;20028;-61
2023/05/18 00:52:45;;;;;;;12.85;3.40;;;;;;;;;;5070397;28;20411;-61
2023/05/18 00:55:11;;;;;;;8.13;3.60;;;;;;;;;;5071201;28;20192;-60
2023/05/18 00:57:37;;;;;;;10.43;3.17;;;;;;;;;;5071679;28;20076;-60
2023/05/18 01:00:07;;;;;;;12.68;3.50;;;;;;;;;;5060964;28;20498;-60
2023/05/18 01:02:35;;;;;;;8.88;3.25;;;;;;;;;;5056005;28;20048;-61
2023/05/18 01:05:02;;;;;;;10.15;3.67;;;;;;;;;;5057083;28;20028;-60
2023/05/18 01:07:32;;;;;;;10.45;3.60;;;;;;;;;;5071105;28;20386;-60
2023/05/18 01:09:58;;;;;;;12.45;3.70;;;;;;;;;;5069072;28;20036;-60
2023/05/18 01:12:46;;;;;;;8.52;3.17;;;;;;;;;;5068630;28;20048;-60
2023/05/18 01:15:22;;;;;;;10.18;3.40;;;;;;;;;;5050845;28;20044;-61
2023/05/18 01:18:05;;;;;;;9.23;3.20;;;;;;;;;;5070613;28;20032;-60
2023/05/18 01:20:45;;;;;;;13.38;3.67;;;;;;;;;;5070130;28;20090;-60
2023/05/18 01:23:28;;;;;;;10.75;3.60;;;;;;;;;;5068332;28;20036;-60
2023/05/18 01:25:53;;;;;;;7.30;3.70;;;;;;;;;;5070671;28;20039;-60
2023/05/18 01:28:25;;;;;;;9.93;3.40;;;;;;;;;;5057430;28;20029;-60
2023/05/18 01:30:51;;;;;;;14.45;3.22;;;;;;;;;;5060379;28;20040;-60
2023/05/18 01:33:17;;;;;;;12.20;3.67;;;;;;;;;;5068655;28;20028;-61
2023/05/18 01:35:46;;;;;;;9.90;3.90;;;;;;;;;;5069630;28;20089;-60
2023/05/18 01:38:32;;;;;;;7.90;3.28;;;;;;;;;;5066248;28;20400;-60
2023/05/18 01:41:13;;;;;;;11.05;3.60;;;;;;;;;;5062832;28;20051;-60
2023/05/18 01:43:54;;;;;;;12.65;3.28;;;;;;;;;;5070150;28;20025;-60
2023/05/18 01:46:31;;;;;;;12.70;3.95;;;;;;;;;;5068893;28;20397;-60
2023/05/18 01:49:05;;;;;;;9.30;3.30;;;;;;;;;;5066306;28;20155;-60
2023/05/18 01:51:35;;;;;;;11.88;3.50;;;;;;;;;;5071526;28;20020;-60
2023/05/18 01:54:06;;;;;;;8.52;3.25;;;;;;;;;;5069531;28;20463;-60
2023/05/18 01:56:33;;;;;;;9.98;3.33;;;;;;;;;;5071470;28;20032;-60
2023/05/18 01:58:59;;;;;;;11.27;3.85;;;;;;;;;;5069989;28;20115;-61
2023/05/18 02:01:25;;;;;;;10.23;3.63;;;;;;;;;;5071000;28;20060;-60
2023/05/18 02:03:50;;;;;;;9.80;3.65;;;;;;;;;;5067794;28;20425;-60
2023/05/18 02:06:16;;;;;;;9.98;3.45;;;;;;;;;;5070984;28;20850;-60
2023/05/18 02:08:42;;;;;;;10.20;3.72;;;;;;;;;;5066942;28;20028;-59
2023/05/18 02:11:08;;;;;;;8.95;3.40;;;;;;;;;;5068500;28;20055;-62
2023/05/18 02:13:33;;;;;;;11.93;3.85;;;;;;;;;;5069265;28;20040;-61
2023/05/18 02:15:58;;;;;;;10.65;3.70;;;;;;;;;;5068296;28;20131;-60
2023/05/18 02:18:25;;;;;;;10.07;3.50;;;;;;;;;;5069982;28;20033;-60
2023/05/18 02:20:59;;;;;;;16.17;3.63;;;;;;;;;;5069993;28;20042;-60
2023/05/18 02:23:25;;;;;;;9.93;3.63;;;;;;;;;;5069841;28;20097;-60
2023/05/18 02:25:54;;;;;;;10.90;3.95;;;;;;;;;;5071038;28;20032;-60
2023/05/18 02:28:22;;;;;;;11.98;3.80;;;;;;;;;;5053085;28;20064;-61
2023/05/18 02:30:48;;;;;;;9.82;3.50;;;;;;;;;;5067406;28;20051;-61
2023/05/18 02:33:13;;;;;;;9.38;3.70;;;;;;;;;;5054434;28;20466;-61
2023/05/18 02:35:39;;;;;;;7.38;3.47;;;;;;;;;;5050059;28;20061;-61
2023/05/18 02:38:05;;;;;;;9.63;3.33;;;;;;;;;;5062951;28;20491;-60
2023/05/18 02:40:32;;;;;;;10.43;4.13;;;;;;;;;;5072885;28;20040;-61
2023/05/18 02:42:58;;;;;;;7.63;3.67;;;;;;;;;;5062175;28;20151;-61
2023/05/18 02:45:24;;;;;;;10.00;4.20;;;;;;;;;;5072871;28;20449;-61
2023/05/18 02:47:49;;;;;;;8.10;3.30;;;;;;;;;;5069448;28;20025;-61
2023/05/18 02:50:15;;;;;;;9.50;3.30;;;;;;;;;;5058193;28;20025;-61
2023/05/18 02:52:41;;;;;;;9.30;3.63;;;;;;;;;;5071397;28;20376;-60
2023/05/18 02:55:06;;;;;;;11.43;3.90;;;;;;;;;;5072749;28;20036;-61
2023/05/18 02:57:32;;;;;;;13.18;3.80;;;;;;;;;;5074600;28;20052;-60
2023/05/18 02:59:58;;;;;;;11.70;3.88;;;;;;;;;;5071119;28;20040;-60
2023/05/18 03:02:23;;;;;;;9.05;3.40;;;;;;;;;;5073538;28;20070;-60
2023/05/18 03:04:56;;;;;;;12.45;3.78;;;;;;;;;;5072104;28;20055;-61
2023/05/18 03:07:21;;;;;;;10.15;3.80;;;;;;;;;;5071175;28;20683;-61
2023/05/18 03:09:47;;;;;;;9.25;3.67;;;;;;;;;;5074517;28;20482;-61
2023/05/18 03:12:12;;;;;;;10.30;3.80;;;;;;;;;;5071519;28;20036;-61
2023/05/18 03:14:38;;;;;;;10.10;4.05;;;;;;;;;;5070662;28;20078;-61
2023/05/18 03:17:04;;;;;;;15.30;4.22;;;;;;;;;;5072384;28;20468;-62
2023/05/18 03:19:31;;;;;;;9.60;4.00;;;;;;;;;;5056728;28;20116;-59
2023/05/18 03:21:56;;;;;;;9.45;3.88;;;;;;;;;;5072087;28;20047;-61
2023/05/18 03:24:25;;;;;;;12.57;3.97;;;;;;;;;;5073280;28;20111;-61
2023/05/18 03:26:53;;;;;;;9.68;4.03;;;;;;;;;;5074142;28;20028;-60
2023/05/18 03:29:19;;;;;;;13.23;4.03;;;;;;;;;;5057436;28;20047;-61
2023/05/18 03:31:45;;;;;;;12.35;4.38;;;;;;;;;;5062621;28;20462;-61
2023/05/18 03:34:11;;;;;;;14.45;4.18;;;;;;;;;;5063647;28;20115;-61
2023/05/18 03:36:37;;;;;;;8.60;3.92;;;;;;;;;;5065355;28;20044;-60
2023/05/18 03:39:05;;;;;;;12.55;4.30;;;;;;;;;;5058594;28;20092;-61
2023/05/18 03:41:31;;;;;;;10.55;4.32;;;;;;;;;;5071912;28;20369;-61
2023/05/18 03:43:57;;;;;;;12.98;4.20;;;;;;;;;;5072443;28;20044;-60
2023/05/18 03:46:22;;;;;;;13.02;4.60;;;;;;;;;;5070722;28;20537;-59
2023/05/18 03:48:48;;;;;;;12.73;4.45;;;;;;;;;;5052710;28;20154;-60
2023/05/18 03:51:13;;;;;;;14.32;4.63;;;;;;;;;;5070996;28;20040;-60
2023/05/18 03:53:41;;;;;;;10.38;4.25;;;;;;;;;;5072738;28;20039;-59
2023/05/18 03:56:06;;;;;;;12.70;4.63;;;;;;;;;;5072074;28;20033;-60
2023/05/18 03:58:32;;;;;;;17.17;4.25;;;;;;;;;;5067755;28;20146;-60
2023/05/18 04:00:59;;;;;;;10.65;4.45;;;;;;;;;;5073313;28;20028;-59
2023/05/18 04:03:25;;;;;;;11.52;4.50;;;;;;;;;;5072438;28;20582;-60
2023/05/18 04:05:52;;;;;;;11.88;4.60;;;;;;;;;;5055597;28;20033;-60
2023/05/18 04:08:18;;;;;;;9.52;4.63;;;;;;;;;;5075923;28;20078;-60
2023/05/18 04:10:44;;;;;;;13.13;4.57;;;;;;;;;;5063136;28;20037;-60
2023/05/18 04:13:10;;;;;;;16.42;5.97;;;;;;;;;;5053452;28;20394;-60
2023/05/18 04:15:36;;;;;;;11.73;4.60;;;;;;;;;;5073537;28;20083;-60
2023/05/18 04:18:02;;;;;;;11.43;4.22;;;;;;;;;;5073318;28;20032;-60
2023/05/18 04:20:28;;;;;;;12.70;4.93;;;;;;;;;;5071422;28;20028;-60
2023/05/18 04:22:56;;;;;;;9.43;4.57;;;;;;;;;;5073158;28;20035;-60
2023/05/18 04:25:26;;;;;;;13.48;4.43;;;;;;;;;;5072290;28;20078;-61
2023/05/18 04:27:53;;;;;;;10.68;4.40;;;;;;;;;;5073401;28;20354;-60
2023/05/18 04:30:20;;;;;;;11.52;5.00;;;;;;;;;;5062429;28;20067;-60
2023/05/18 04:32:46;;;;;;;9.77;4.40;;;;;;;;;;5056724;28;20126;-60
2023/05/18 04:35:12;;;;;;;9.52;4.15;;;;;;;;;;5052138;28;20095;-60
2023/05/18 04:37:41;;;;;;;13.00;4.97;;;;;;;;;;5060273;28;20056;-60
2023/05/18 04:40:11;;;;;;;11.45;4.43;;;;;;;;;;5071059;28;20052;-60
2023/05/18 04:42:37;;;;;;;9.55;4.13;;;;;;;;;;5073014;28;20031;-60
2023/05/18 04:45:04;;;;;;;13.95;4.38;;;;;;;;;;5072931;28;20040;-60
2023/05/18 04:47:30;;;;;;;9.63;4.32;;;;;;;;;;5070472;28;20886;-60
2023/05/18 04:49:55;;;;;;;10.95;4.32;;;;;;;;;;5071305;28;20041;-60
2023/05/18 04:52:21;;;;;;;11.07;4.28;;;;;;;;;;5070044;28;20071;-60
2023/05/18 04:54:46;;;;;;;10.32;4.22;;;;;;;;;;5072663;28;20127;-60
2023/05/18 04:57:12;;;;;;;11.18;4.70;;;;;;;;;;5070041;28;20063;-60
2023/05/18 04:59:38;;;;;;;11.93;4.20;;;;;;;;;;5072492;28;20115;-60
2023/05/18 05:02:04;;;;;;;14.65;5.45;;;;;;;;;;5071926;28;20056;-60
2023/05/18 05:04:29;;;;;;;15.05;4.80;;;;;;;;;;5070592;28;20052;-60
2023/05/18 05:06:55;;;;;;;18.42;4.57;;;;;;;;;;5071607;28;20029;-60
2023/05/18 05:09:20;;;;;;;9.73;4.03;;;;;;;;;;5071440;28;20029;-60
2023/05/18 05:11:46;;;;;;;10.52;4.20;;;;;;;;;;5071024;28;20477;-60
2023/05/18 05:14:12;;;;;;;13.18;4.38;;;;;;;;;;5071106;28;20112;-60
2023/05/18 05:16:38;;;;;;;11.15;4.47;;;;;;;;;;5071947;28;20462;-60
2023/05/18 05:19:03;;;;;;;12.13;4.22;;;;;;;;;;5072127;28;20032;-60
2023/05/18 05:21:28;;;;;;;12.25;4.55;;;;;;;;;;5058090;28;20028;-60
2023/05/18 05:23:54;;;;;;;12.68;4.55;;;;;;;;;;5071988;28;20036;-60
2023/05/18 05:26:20;;;;;;;12.25;4.80;;;;;;;;;;5066238;28;20032;-60
2023/05/18 05:28:46;;;;;;;10.95;3.95;;;;;;;;;;5070587;28;20108;-60
2023/05/18 05:31:11;;;;;;;9.93;4.18;;;;;;;;;;5071474;28;20111;-60
2023/05/18 05:33:37;;;;;;;14.70;5.00;;;;;;;;;;5060058;28;20072;-60
2023/05/18 05:36:04;;;;;;;7.93;4.18;;;;;;;;;;5070619;28;20039;-60
2023/05/18 05:38:30;;;;;;;10.00;4.60;;;;;;;;;;5070700;28;20075;-59
2023/05/18 05:40:56;;;;;;;14.13;4.47;;;;;;;;;;5071886;28;20035;-60
2023/05/18 05:43:21;;;;;;;9.75;4.45;;;;;;;;;;5070630;28;20388;-60
2023/05/18 05:45:46;;;;;;;12.32;3.97;;;;;;;;;;5071849;28;20032;-60
2023/05/18 05:48:12;;;;;;;9.80;4.05;;;;;;;;;;5067007;28;20032;-61
2023/05/18 05:50:37;;;;;;;9.65;3.95;;;;;;;;;;5061642;28;20484;-57
2023/05/18 05:53:03;;;;;;;11.98;4.15;;;;;;;;;;5080525;28;20146;-61
2023/05/18 05:55:28;;;;;;;11.27;4.20;;;;;;;;;;5071889;28;20016;-61
2023/05/18 05:57:53;;;;;;;9.88;3.83;;;;;;;;;;5069040;28;20056;-61
2023/05/18 06:00:19;;;;;;;10.52;4.57;;;;;;;;;;5090710;28;20361;-61
2023/05/18 06:02:45;;;;;;;12.35;4.68;;;;;;;;;;5078004;28;20107;-61
2023/05/18 06:05:10;;;;;;;9.50;4.55;;;;;;;;;;5071631;28;20029;-61
2023/05/18 06:07:35;;;;;;;11.82;4.10;;;;;;;;;;5070091;28;20025;-63
2023/05/18 06:10:01;;;;;;;12.73;4.53;;;;;;;;;;5079842;28;20472;-62
2023/05/18 06:12:27;;;;;;;9.85;4.15;;;;;;;;;;5085039;28;20085;-62
2023/05/18 06:14:56;;;;;;;13.60;4.43;;;;;;;;;;5083095;28;20089;-62
2023/05/18 06:17:23;;;;;;;9.85;4.07;;;;;;;;;;5093690;28;20098;-62
2023/05/18 06:19:48;;;;;;;10.38;4.10;;;;;;;;;;5095923;28;20032;-62
2023/05/18 06:22:14;;;;;;;9.13;4.22;;;;;;;;;;5074450;28;20067;-61
2023/05/18 06:24:39;;;;;;;8.55;3.80;;;;;;;;;;5074694;28;20058;-61
2023/05/18 06:27:04;;;;;;;11.65;3.97;;;;;;;;;;5073136;28;20162;-62
2023/05/18 06:29:30;;;;;;;14.40;4.15;;;;;;;;;;5064077;28;20037;-62
2023/05/18 06:31:56;;;;;;;10.20;3.55;;;;;;;;;;5072663;28;20020;-63
2023/05/18 06:34:21;;;;;;;8.48;3.53;;;;;;;;;;5074375;28;20068;-62
2023/05/18 06:36:47;;;;;;;14.52;4.53;;;;;;;;;;5073020;28;20068;-62
2023/05/18 06:39:12;;;;;;;10.95;3.90;;;;;;;;;;5075112;28;20139;-62
2023/05/18 06:41:38;;;;;;;7.93;3.45;;;;;;;;;;5073817;28;20028;-62
2023/05/18 06:44:03;;;;;;;10.63;4.00;;;;;;;;;;5072698;28;20505;-62
2023/05/18 06:46:28;;;;;;;6.90;3.58;;;;;;;;;;5059734;28;20043;-62
2023/05/18 06:48:54;;;;;;;8.48;3.70;;;;;;;;;;5074589;28;20044;-62
2023/05/18 06:51:19;;;;;;;10.15;3.53;;;;;;;;;;5073767;28;20036;-63
2023/05/18 06:53:45;;;;;;;11.60;4.00;;;;;;;;;;5073921;28;20063;-61
2023/05/18 06:56:11;;;;;;;9.98;3.65;;;;;;;;;;5073132;28;20036;-61
2023/05/18 06:58:38;;;;;;;16.55;3.85;;;;;;;;;;5073938;28;20032;-61
2023/05/18 07:01:03;;;;;;;9.65;3.50;;;;;;;;;;5074736;28;20037;-61
2023/05/18 07:03:28;;;;;;;10.93;3.72;;;;;;;;;;5073805;28;20115;-63
2023/05/18 07:05:54;;;;;;;8.20;3.20;;;;;;;;;;5071074;28;20024;-62
2023/05/18 07:08:19;;;;;;;11.48;3.60;;;;;;;;;;5074105;28;20029;-63
2023/05/18 07:10:45;;;;;;;11.15;3.80;;;;;;;;;;5074193;28;20036;-62
2023/05/18 07:13:11;;;;;;;8.25;3.38;;;;;;;;;;5072395;28;20035;-62
2023/05/18 07:15:37;;;;;;;11.98;3.53;;;;;;;;;;5072750;28;20542;-62
2023/05/18 07:18:02;;;;;;;8.30;3.55;;;;;;;;;;5071144;28;20033;-62
2023/05/18 07:20:28;;;;;;;8.98;3.35;;;;;;;;;;5069913;28;20033;-62
2023/05/18 07:22:56;;;;;;;9.00;3.42;;;;;;;;;;5074243;28;20029;-62
2023/05/18 07:25:22;;;;;;;11.40;4.00;;;;;;;;;;5055160;28;20564;-62
2023/05/18 07:27:48;;;;;;;9.00;3.58;;;;;;;;;;5053866;28;20029;-62
2023/05/18 07:30:13;;;;;;;9.68;3.40;;;;;;;;;;5073161;28;20032;-62
2023/05/18 07:32:38;;;;;;;11.57;3.80;;;;;;;;;;5073586;28;20314;-62
2023/05/18 07:35:04;;;;;;;11.65;3.50;;;;;;;;;;5074086;28;20133;-61
2023/05/18 07:37:30;;;;;;;11.25;3.58;;;;;;;;;;5073072;28;20052;-62
2023/05/18 07:39:55;;;;;;;13.98;3.65;;;;;;;;;;5071434;28;20052;-62
2023/05/18 07:42:21;;;;;;;9.48;3.50;;;;;;;;;;5073235;28;20052;-62
2023/05/18 07:44:46;;;;;;;6.53;3.35;;;;;;;;;;5073858;28;20037;-60
2023/05/18 07:47:11;;;;;;;8.73;3.50;;;;;;;;;;5072978;28;20041;-62
2023/05/18 07:49:38;;;;;;;10.98;3.38;;;;;;;;;;5064608;28;20106;-61
2023/05/18 07:52:07;;;;;;;9.80;3.75;;;;;;;;;;5073904;28;20422;-61
2023/05/18 07:54:32;;;;;;;8.63;3.13;;;;;;;;;;5066759;28;20025;-61
2023/05/18 07:56:57;;;;;;;12.25;3.67;;;;;;;;;;5073562;28;20532;-61
2023/05/18 07:59:23;;;;;;;7.68;2.88;;;;;;;;;;5071359;28;20036;-63
2023/05/18 08:01:48;;;;;;;10.77;3.50;;;;;;;;;;5065477;28;20032;-62
2023/05/18 08:04:14;;;;;;;12.27;3.47;;;;;;;;;;5072278;28;20028;-61
2023/05/18 08:06:39;;;;;;;11.82;3.70;;;;;;;;;;5072617;28;20028;-62
2023/05/18 08:09:05;;;;;;;7.03;3.20;;;;;;;;;;5071171;28;20170;-61
2023/05/18 08:11:31;;;;;;;9.13;3.35;;;;;;;;;;5052319;28;20047;-62
2023/05/18 08:13:57;;;;;;;9.82;3.60;;;;;;;;;;5052977;28;20029;-61
2023/05/18 08:16:22;;;;;;;10.82;3.55;;;;;;;;;;5053755;28;20036;-61
2023/05/18 08:18:48;;;;;;;8.05;3.42;;;;;;;;;;5067275;28;20037;-61
2023/05/18 08:21:13;;;;;;;11.32;3.58;;;;;;;;;;5053072;28;20055;-60
2023/05/18 08:23:39;;;;;;;12.73;3.92;;;;;;;;;;5068985;28;20036;-60
2023/05/18 08:26:04;;;;;;;10.98;3.88;;;;;;;;;;5072145;28;20037;-60
2023/05/18 08:28:30;;;;;;;10.27;3.58;;;;;;;;;;5072127;28;20024;-62
2023/05/18 08:30:56;;;;;;;8.20;3.15;;;;;;;;;;5070417;28;20021;-60
2023/05/18 08:33:25;;;;;;;9.27;3.30;;;;;;;;;;5072351;28;20029;-60
2023/05/18 08:35:50;;;;;;;9.50;3.60;;;;;;;;;;5071956;28;20032;-61
2023/05/18 08:38:16;;;;;;;9.18;3.30;;;;;;;;;;5072586;28;20031;-61
2023/05/18 08:40:49;;;;;;;8.38;3.40;;;;;;;;;;5070902;28;20113;-60
2023/05/18 08:43:21;;;;;;;8.38;3.05;;;;;;;;;;5055401;28;20033;-61
2023/05/18 08:45:51;;;;;;;9.38;3.30;;;;;;;;;;5058855;28;20043;-61
2023/05/18 08:48:19;;;;;;;10.30;3.47;;;;;;;;;;5071885;28;20447;-61
2023/05/18 08:50:46;;;;;;;9.88;3.65;;;;;;;;;;5070733;28;20036;-62
2023/05/18 08:53:11;;;;;;;9.13;3.60;;;;;;;;;;5072796;28;20037;-61
2023/05/18 08:55:39;;;;;;;10.18;3.75;;;;;;;;;;5071576;28;20035;-61
2023/05/18 08:58:06;;;;;;;7.60;3.15;;;;;;;;;;5072435;28;20057;-61
2023/05/18 09:00:32;;;;;;;10.27;3.42;;;;;;;;;;5071611;28;20115;-61
2023/05/18 09:02:58;;;;;;;10.32;3.78;;;;;;;;;;5069386;28;20107;-60
2023/05/18 09:05:23;;;;;;;11.90;3.63;;;;;;;;;;5071009;28;20123;-61
2023/05/18 09:07:50;;;;;;;7.65;3.40;;;;;;;;;;5070731;28;20040;-61
2023/05/18 09:10:16;;;;;;;7.57;3.20;;;;;;;;;;5072100;28;20032;-62
2023/05/18 09:12:45;;;;;;;8.88;3.47;;;;;;;;;;5071160;28;20630;-61
2023/05/18 09:15:12;;;;;;;10.35;3.30;;;;;;;;;;5071928;28;20060;-61
2023/05/18 09:17:37;;;;;;;9.32;3.60;;;;;;;;;;5053658;28;20029;-61
2023/05/18 09:20:06;;;;;;;4.80;3.00;;;;;;;;;;5061193;28;20037;-60
2023/05/18 09:22:34;;;;;;;7.93;3.22;;;;;;;;;;5070797;28;20035;-60
2023/05/18 09:25:00;;;;;;;6.93;3.30;;;;;;;;;;5069084;28;20074;-60
2023/05/18 09:27:26;;;;;;;8.57;3.28;;;;;;;;;;5067231;28;20071;-61
2023/05/18 09:29:56;;;;;;;10.27;3.22;;;;;;;;;;5077443;28;20128;-61
2023/05/18 09:32:22;;;;;;;11.52;3.53;;;;;;;;;;5092174;28;20460;-61
2023/05/18 09:34:49;;;;;;;12.82;3.60;;;;;;;;;;5073392;28;20021;-61
2023/05/18 09:37:21;;;;;;;8.30;3.33;;;;;;;;;;5071496;28;20495;-61
2023/05/18 09:40:13;;;;;;;9.90;3.75;;;;;;;;;;5077488;28;20078;-62
2023/05/18 09:42:41;;;;;;;8.68;3.20;;;;;;;;;;5087397;28;20069;-61
2023/05/18 09:45:18;;;;;;;9.45;3.63;;;;;;;;;;5090203;28;20371;-61
2023/05/18 09:47:44;;;;;;;11.70;3.72;;;;;;;;;;5070954;28;20037;-61
2023/05/18 09:50:10;;;;;;;8.80;3.35;;;;;;;;;;5070066;28;20025;-61
2023/05/18 09:52:43;;;;;;;10.40;3.63;;;;;;;;;;5070454;28;20453;-61
2023/05/18 09:55:10;;;;;;;11.93;3.60;;;;;;;;;;5071373;28;20028;-61
2023/05/18 09:57:41;;;;;;;7.40;3.35;;;;;;;;;;5070819;28;20048;-62
2023/05/18 10:00:09;;;;;;;10.73;4.10;;;;;;;;;;5071714;28;20029;-60
2023/05/18 10:02:40;;;;;;;7.25;3.67;;;;;;;;;;5069276;28;20104;-62
2023/05/18 10:05:18;;;;;;;11.25;4.00;;;;;;;;;;5071640;28;20028;-61
2023/05/18 10:07:44;;;;;;;9.32;3.60;;;;;;;;;;5070915;28;20099;-61
2023/05/18 10:10:10;;;;;;;10.50;3.97;;;;;;;;;;5055086;28;20029;-62
2023/05/18 10:12:38;;;;;;;10.02;3.35;;;;;;;;;;5083139;28;20152;-62
2023/05/18 10:15:03;;;;;;;7.93;3.65;;;;;;;;;;5091728;28;20035;-61
2023/05/18 10:17:32;;;;;;;9.63;3.47;;;;;;;;;;5073843;28;20029;-62
2023/05/18 10:19:57;;;;;;;7.50;3.40;;;;;;;;;;5071537;28;20040;-62
2023/05/18 10:22:24;;;;;;;9.82;3.38;;;;;;;;;;5071476;28;20021;-62
2023/05/18 10:24:53;;;;;;;12.60;3.72;;;;;;;;;;5071581;28;20161;-61
2023/05/18 10:27:27;;;;;;;11.18;3.95;;;;;;;;;;5056851;28;20137;-60
2023/05/18 10:29:56;;;;;;;11.18;3.90;;;;;;;;;;5070107;28;20032;-61
2023/05/18 10:32:24;;;;;;;6.78;3.47;;;;;;;;;;5070301;28;20025;-61
2023/05/18 10:34:51;;;;;;;11.73;3.92;;;;;;;;;;5067583;28;20481;-60
2023/05/18 10:37:20;;;;;;;8.73;3.42;;;;;;;;;;5056963;28;20033;-60
2023/05/18 10:40:06;;;;;;;9.95;3.70;;;;;;;;;;5048722;28;20053;-61
2023/05/18 10:42:32;;;;;;;7.78;3.60;;;;;;;;;;5059479;28;20036;-61
2023/05/18 10:45:00;;;;;;;9.88;3.60;;;;;;;;;;5071111;28;20047;-61
2023/05/18 10:47:26;;;;;;;7.85;3.80;;;;;;;;;;5065541;28;20028;-60
2023/05/18 10:49:52;;;;;;;10.88;4.10;;;;;;;;;;5070570;28;20039;-60
2023/05/18 10:52:19;;;;;;;12.82;4.20;;;;;;;;;;5070991;28;20112;-60
2023/05/18 10:54:45;;;;;;;10.00;3.58;;;;;;;;;;5070105;28;20032;-60
2023/05/18 10:57:14;;;;;;;8.10;3.83;;;;;;;;;;5070956;28;20089;-61
2023/05/18 10:59:42;;;;;;;8.10;3.58;;;;;;;;;;5069972;28;20477;-60
2023/05/18 11:02:09;;;;;;;7.80;3.60;;;;;;;;;;5071211;28;20036;-61
2023/05/18 11:04:38;;;;;;;7.57;3.10;;;;;;;;;;5073839;28;20036;-61
2023/05/18 11:07:03;;;;;;;8.82;3.42;;;;;;;;;;5071891;28;20146;-62
2023/05/18 11:09:29;;;;;;;8.75;3.30;;;;;;;;;;5069302;28;20059;-61
2023/05/18 11:11:56;;;;;;;13.40;3.30;;;;;;;;;;5071517;28;20488;-63
2023/05/18 11:14:29;;;;;;;6.72;3.00;;;;;;;;;;5054579;28;20151;-63
2023/05/18 11:17:32;;;;;;;8.80;3.72;;;;;;;;;;5054917;28;20475;-64
2023/05/18 11:20:11;;;;;;;9.50;3.08;;;;;;;;;;5069745;28;20041;-62
2023/05/18 11:22:45;;;;;;;7.45;2.97;;;;;;;;;;5070264;28;20079;-60
2023/05/18 11:25:23;;;;;;;6.43;3.08;;;;;;;;;;5057735;28;20029;-61
2023/05/18 11:27:50;;;;;;;9.70;3.40;;;;;;;;;;5072159;28;20037;-61
2023/05/18 11:30:29;;;;;;;8.20;3.05;;;;;;;;;;5072701;28;20056;-61
2023/05/18 11:33:22;;;;;;;7.00;3.08;;;;;;;;;;5061241;28;20040;-61
2023/05/18 11:36:10;;;;;;;8.75;3.05;;;;;;;;;;5056669;28;20043;-60
2023/05/18 11:39:05;;;;;;;7.43;3.15;;;;;;;;;;5071836;28;20107;-60
2023/05/18 11:41:38;;;;;;;8.02;3.13;;;;;;;;;;5072528;28;20050;-61
2023/05/18 11:44:15;;;;;;;8.07;3.17;;;;;;;;;;5074020;28;20108;-60
2023/05/18 11:46:52;;;;;;;9.50;2.90;;;;;;;;;;5065660;28;20029;-61
2023/05/18 11:49:35;;;;;;;7.78;2.90;;;;;;;;;;5071363;28;20037;-61
2023/05/18 11:52:07;;;;;;;8.15;3.00;;;;;;;;;;5072893;28;20032;-62
2023/05/18 11:54:53;;;;;;;7.82;3.13;;;;;;;;;;5069030;28;20450;-61
2023/05/18 11:57:23;;;;;;;7.70;2.88;;;;;;;;;;5066311;28;20044;-61
2023/05/18 11:59:54;;;;;;;7.03;3.00;;;;;;;;;;5071604;28;20464;-61
2023/05/18 12:02:23;;;;;;;8.13;2.85;;;;;;;;;;5071166;28;20041;-61
2023/05/18 12:04:55;;;;;;;7.00;3.10;;;;;;;;;;5070662;28;20392;-60
2023/05/18 12:07:23;;;;;;;7.60;2.80;;;;;;;;;;5072046;28;20036;-62
2023/05/18 12:09:49;;;;;;;8.73;3.13;;;;;;;;;;5071665;28;20461;-62
2023/05/18 12:12:18;;;;;;;8.30;2.95;;;;;;;;;;5070020;28;20039;-60
2023/05/18 12:14:48;;;;;;;7.85;2.85;;;;;;;;;;5070684;28;20031;-62
2023/05/18 12:17:14;;;;;;;9.15;2.85;;;;;;;;;;5070322;28;20067;-62
2023/05/18 12:19:44;;;;;;;7.22;2.83;;;;;;;;;;5072241;28;20071;-61
2023/05/18 12:22:10;;;;;;;9.17;2.73;;;;;;;;;;5065977;28;20044;-62
2023/05/18 12:24:37;;;;;;;8.20;3.03;;;;;;;;;;5069411;28;20071;-62
2023/05/18 12:27:05;;;;;;;6.50;2.70;;;;;;;;;;5065163;28;20089;-62
2023/05/18 12:29:31;;;;;;;7.60;2.60;;;;;;;;;;5070123;28;20028;-62
2023/05/18 12:31:57;;;;;;;5.15;2.55;;;;;;;;;;5055440;28;20094;-62
2023/05/18 12:34:27;;;;;;;8.07;2.70;;;;;;;;;;5065770;28;20060;-62
2023/05/18 12:36:54;;;;;;;8.95;2.83;;;;;;;;;;5062184;28;20788;-62
2023/05/18 12:39:20;;;;;;;6.75;2.67;;;;;;;;;;5071251;28;20048;-62
2023/05/18 12:41:46;;;;;;;6.93;2.50;;;;;;;;;;5071147;28;20082;-62
2023/05/18 12:44:12;;;;;;;8.77;3.10;;;;;;;;;;5070095;28;20037;-62
2023/05/18 12:46:37;;;;;;;6.25;2.40;;;;;;;;;;5058602;28;20044;-60
2023/05/18 12:49:05;;;;;;;8.63;3.10;;;;;;;;;;5067026;28;20110;-63
2023/05/18 12:51:34;;;;;;;8.25;2.72;;;;;;;;;;5053946;28;20028;-61
2023/05/18 12:54:04;;;;;;;8.00;2.58;;;;;;;;;;5057044;28;20031;-61
2023/05/18 12:56:59;;;;;;;8.13;2.92;;;;;;;;;;5056814;28;20044;-60
2023/05/18 12:59:25;;;;;;;8.68;3.20;;;;;;;;;;5064593;28;20039;-62
2023/05/18 13:01:52;;;;;;;9.63;2.90;;;;;;;;;;5052861;28;20089;-61
2023/05/18 13:04:17;;;;;;;6.75;2.45;;;;;;;;;;5069882;28;20029;-62
2023/05/18 13:06:43;;;;;;;6.95;2.55;;;;;;;;;;5063229;28;20059;-62
2023/05/18 13:09:12;;;;;;;8.60;2.90;;;;;;;;;;5067831;28;20354;-62
2023/05/18 13:11:38;;;;;;;7.68;3.00;;;;;;;;;;5065910;28;20032;-61
2023/05/18 13:14:06;;;;;;;6.55;2.50;;;;;;;;;;5065992;28;20034;-62
2023/05/18 13:16:38;;;;;;;7.32;2.65;;;;;;;;;;5067468;28;20102;-61
2023/05/18 13:19:08;;;;;;;6.57;2.47;;;;;;;;;;5068590;28;20036;-62
2023/05/18 13:21:34;;;;;;;7.05;2.67;;;;;;;;;;5068893;28;20081;-61
2023/05/18 13:24:00;;;;;;;7.30;3.05;;;;;;;;;;5063949;28;20040;-63
2023/05/18 13:26:26;;;;;;;7.82;2.67;;;;;;;;;;5055588;28;20119;-62
2023/05/18 13:28:54;;;;;;;9.23;2.70;;;;;;;;;;5067984;28;20107;-61
2023/05/18 13:31:21;;;;;;;7.97;2.85;;;;;;;;;;5066709;28;20159;-62
2023/05/18 13:33:47;;;;;;;6.95;2.90;;;;;;;;;;5061320;28;20480;-62
2023/05/18 13:36:13;;;;;;;7.03;2.70;;;;;;;;;;5065367;28;20032;-62
2023/05/18 13:38:40;;;;;;;6.68;2.50;;;;;;;;;;5067066;28;20456;-63
2023/05/18 13:41:05;;;;;;;6.38;2.70;;;;;;;;;;5063418;28;20032;-61
2023/05/18 13:43:32;;;;;;;9.10;2.42;;;;;;;;;;5069844;28;20035;-62
2023/05/18 13:45:58;;;;;;;8.25;2.70;;;;;;;;;;5050490;28;20389;-62
2023/05/18 13:48:26;;;;;;;8.05;2.60;;;;;;;;;;5066328;28;20024;-61
2023/05/18 13:50:52;;;;;;;7.03;2.70;;;;;;;;;;5060203;28;20480;-62
2023/05/18 13:53:17;;;;;;;7.00;2.60;;;;;;;;;;5063920;28;20036;-62
2023/05/18 13:55:42;;;;;;;6.32;2.60;;;;;;;;;;5066981;28;20032;-62
2023/05/18 13:58:08;;;;;;;7.70;2.78;;;;;;;;;;5068940;28;20024;-62
2023/05/18 14:00:35;;;;;;;6.93;2.63;;;;;;;;;;5067355;28;20750;-60
2023/05/18 14:03:01;;;;;;;7.82;2.70;;;;;;;;;;5063953;28;20439;-60
2023/05/18 14:05:26;;;;;;;5.05;2.42;;;;;;;;;;5070643;28;20031;-59
2023/05/18 14:07:52;;;;;;;8.77;2.65;;;;;;;;;;5087365;28;20040;-59
2023/05/18 14:10:17;;;;;;;7.88;2.60;;;;;;;;;;5071034;28;20029;-60
2023/05/18 14:12:43;;;;;;;10.15;2.75;;;;;;;;;;5070664;28;20093;-59
2023/05/18 14:15:09;;;;;;;6.10;2.40;;;;;;;;;;5069586;28;20385;-59
2023/05/18 14:17:35;;;;;;;8.80;2.70;;;;;;;;;;5070902;28;20052;-59
2023/05/18 14:20:01;;;;;;;6.40;2.50;;;;;;;;;;5069768;28;20281;-59
2023/05/18 14:22:26;;;;;;;6.88;2.42;;;;;;;;;;5071639;28;20032;-59
2023/05/18 14:24:52;;;;;;;8.48;2.58;;;;;;;;;;5070721;28;20050;-59
2023/05/18 14:27:21;;;;;;;7.10;2.55;;;;;;;;;;5070538;28;20477;-59
2023/05/18 14:29:47;;;;;;;6.70;2.60;;;;;;;;;;5069960;28;20036;-60
2023/05/18 14:32:13;;;;;;;8.05;2.72;;;;;;;;;;5071179;28;20056;-59
2023/05/18 14:34:38;;;;;;;10.70;2.60;;;;;;;;;;5072320;28;20059;-59
2023/05/18 14:37:04;;;;;;;10.07;2.72;;;;;;;;;;5070840;28;20074;-60
2023/05/18 14:39:29;;;;;;;10.88;2.83;;;;;;;;;;5055091;28;20477;-59
2023/05/18 14:41:55;;;;;;;7.00;2.58;;;;;;;;;;5070040;28;20068;-59